Adamant, Vermont
Current Conditions -  °F | °C
As of 7:51 PM on Saturday 22 Nov 2014 (Local Time) from KMPV Reporting Station
Overcast Overcast  
Wind Chill: 39°   Ceiling: 2700
Heat Index: 39°   Visibility: 10mi
Dew Point: 28°   Wind: 3mph
Humidity: 65%   Direction: NA
Pressure: 29.96"   Gusts: NA
Location:  44.33°N, 72.5°W
Report Text: KMPV 230051Z AUTO VRB03KT 10SM OVC027 04/M02 A2996 RMK AO2 SLP162 T00391022
Loading
Personal Weather Stations






























Interactive Weather Map New forecast layout! Learn more

10-Day Weather Forecast

Advertisements
Track Severe Weather on mobile